Portada
METAR-TAF:

METAR-TAF

Aeroports :

Lansing, Illinois, Estats Units d'Amèrica

Lansing Municipal Airport

latitud: 41-32-24N, longitud: 087-31-56W, altitud: 188 m

Observació

L'informe es va fer fa 16 minuts, a les 21:35 UTC
Vent 8 kt del Nord-Est amb ràfegues de 18 kt
Temperatura 14°C
Humitat 41%
Pressió 1024 hPa
Visibilitat: 16.1 km
Cel clar

METAR: KIGQ 222135Z AUTO 04008G18KT 10SM CLR 14/01 A3025 RMK AO2 T01380007

Hora: 16:51 (21:51 UTC)


TAF: manca

Observacions i pronòstics meteorològics de més de 4000 aeroports (METAR i TAF).

Les estacions disponibles són els punts grocs i vermells al mapa.

Posi el ratolí al punt desitjat per veure el nom de l'estació.

Feu clic per veure les observacions i els pronòstics meteorològics.

Per canviar el mapa: feu clic els botons verds amb una creu de color negre per apropar; al botó verd amb un guió per allunyar la imatge; o en les fletxes verdes per a mapes adjacents.


METAR-TAF: